sensor_id;sensor_type;location;lat;lon;timestamp;P1;durP1;ratioP1;P2;durP2;ratioP2
24163;SDS011;12319;49.204;8.116;2023-11-18T00:00:37;5.72;;;2.30;;
24163;SDS011;12319;49.204;8.116;2023-11-18T00:03:04;4.57;;;2.30;;
24163;SDS011;12319;49.204;8.116;2023-11-18T00:05:30;5.20;;;2.30;;
24163;SDS011;12319;49.204;8.116;2023-11-18T00:07:56;4.47;;;2.20;;
24163;SDS011;12319;49.204;8.116;2023-11-18T00:10:21;5.40;;;2.40;;
24163;SDS011;12319;49.204;8.116;2023-11-18T00:12:48;4.90;;;2.50;;
24163;SDS011;12319;49.204;8.116;2023-11-18T00:15:14;4.65;;;2.42;;
24163;SDS011;12319;49.204;8.116;2023-11-18T00:17:40;4.93;;;2.70;;
24163;SDS011;12319;49.204;8.116;2023-11-18T00:20:06;4.63;;;2.43;;
24163;SDS011;12319;49.204;8.116;2023-11-18T00:22:37;4.35;;;2.33;;
24163;SDS011;12319;49.204;8.116;2023-11-18T00:25:03;4.45;;;2.25;;
24163;SDS011;12319;49.204;8.116;2023-11-18T00:27:32;4.53;;;2.40;;
24163;SDS011;12319;49.204;8.116;2023-11-18T00:30:01;5.38;;;2.42;;
24163;SDS011;12319;49.204;8.116;2023-11-18T00:32:29;4.65;;;2.60;;
24163;SDS011;12319;49.204;8.116;2023-11-18T00:34:56;5.03;;;2.60;;
24163;SDS011;12319;49.204;8.116;2023-11-18T00:37:22;4.23;;;2.33;;
24163;SDS011;12319;49.204;8.116;2023-11-18T00:39:48;4.75;;;2.60;;
24163;SDS011;12319;49.204;8.116;2023-11-18T00:42:13;4.60;;;2.40;;
24163;SDS011;12319;49.204;8.116;2023-11-18T00:44:39;4.77;;;2.63;;
24163;SDS011;12319;49.204;8.116;2023-11-18T00:47:05;4.15;;;2.40;;
24163;SDS011;12319;49.204;8.116;2023-11-18T00:49:30;4.63;;;2.50;;
24163;SDS011;12319;49.204;8.116;2023-11-18T00:51:56;4.65;;;2.45;;
24163;SDS011;12319;49.204;8.116;2023-11-18T00:54:21;6.33;;;2.50;;
24163;SDS011;12319;49.204;8.116;2023-11-18T00:56:47;4.70;;;2.47;;
24163;SDS011;12319;49.204;8.116;2023-11-18T00:59:13;4.32;;;2.22;;
24163;SDS011;12319;49.204;8.116;2023-11-18T01:01:38;5.20;;;2.60;;
24163;SDS011;12319;49.204;8.116;2023-11-18T01:04:05;5.00;;;2.83;;
24163;SDS011;12319;49.204;8.116;2023-11-18T01:06:30;5.00;;;2.30;;
24163;SDS011;12319;49.204;8.116;2023-11-18T01:08:57;5.40;;;2.60;;
24163;SDS011;12319;49.204;8.116;2023-11-18T01:11:23;5.18;;;2.85;;
24163;SDS011;12319;49.204;8.116;2023-11-18T01:13:49;4.70;;;2.40;;
24163;SDS011;12319;49.204;8.116;2023-11-18T01:16:15;4.90;;;2.60;;
24163;SDS011;12319;49.204;8.116;2023-11-18T01:18:41;4.50;;;2.47;;
24163;SDS011;12319;49.204;8.116;2023-11-18T01:21:07;5.00;;;2.53;;
24163;SDS011;12319;49.204;8.116;2023-11-18T01:23:36;4.80;;;2.50;;
24163;SDS011;12319;49.204;8.116;2023-11-18T01:26:03;4.90;;;2.60;;
24163;SDS011;12319;49.204;8.116;2023-11-18T01:28:36;7.43;;;2.90;;
24163;SDS011;12319;49.204;8.116;2023-11-18T01:31:04;5.00;;;2.50;;
24163;SDS011;12319;49.204;8.116;2023-11-18T01:33:30;5.40;;;2.60;;
24163;SDS011;12319;49.204;8.116;2023-11-18T01:35:57;4.50;;;2.30;;
24163;SDS011;12319;49.204;8.116;2023-11-18T01:38:23;4.80;;;2.60;;
24163;SDS011;12319;49.204;8.116;2023-11-18T01:40:49;4.60;;;2.53;;
24163;SDS011;12319;49.204;8.116;2023-11-18T01:43:15;4.82;;;2.55;;
24163;SDS011;12319;49.204;8.116;2023-11-18T01:45:41;4.90;;;2.50;;
24163;SDS011;12319;49.204;8.116;2023-11-18T01:48:06;4.70;;;2.50;;
24163;SDS011;12319;49.204;8.116;2023-11-18T01:50:34;4.47;;;2.35;;
24163;SDS011;12319;49.204;8.116;2023-11-18T01:53:02;5.33;;;2.30;;
24163;SDS011;12319;49.204;8.116;2023-11-18T01:55:28;5.47;;;2.60;;
24163;SDS011;12319;49.204;8.116;2023-11-18T01:57:54;4.82;;;2.55;;
24163;SDS011;12319;49.204;8.116;2023-11-18T02:00:21;4.63;;;2.40;;
24163;SDS011;12319;49.204;8.116;2023-11-18T02:02:48;4.90;;;2.65;;
24163;SDS011;12319;49.204;8.116;2023-11-18T02:05:14;4.68;;;2.60;;
24163;SDS011;12319;49.204;8.116;2023-11-18T02:07:42;6.00;;;2.53;;
24163;SDS011;12319;49.204;8.116;2023-11-18T02:10:08;5.18;;;2.78;;
24163;SDS011;12319;49.204;8.116;2023-11-18T02:15:50;5.05;;;2.42;;
24163;SDS011;12319;49.204;8.116;2023-11-18T02:18:22;4.50;;;2.45;;
24163;SDS011;12319;49.204;8.116;2023-11-18T02:20:49;4.95;;;2.72;;
24163;SDS011;12319;49.204;8.116;2023-11-18T02:23:17;5.00;;;2.60;;
24163;SDS011;12319;49.204;8.116;2023-11-18T02:25:45;5.40;;;2.73;;
24163;SDS011;12319;49.204;8.116;2023-11-18T02:28:11;4.97;;;2.55;;
24163;SDS011;12319;49.204;8.116;2023-11-18T02:30:37;5.18;;;2.63;;
24163;SDS011;12319;49.204;8.116;2023-11-18T02:35:53;5.82;;;2.50;;
24163;SDS011;12319;49.204;8.116;2023-11-18T02:38:29;6.13;;;2.45;;
24163;SDS011;12319;49.204;8.116;2023-11-18T02:40:58;4.63;;;2.40;;
24163;SDS011;12319;49.204;8.116;2023-11-18T02:43:26;4.60;;;2.40;;
24163;SDS011;12319;49.204;8.116;2023-11-18T02:45:53;4.45;;;2.38;;
24163;SDS011;12319;49.204;8.116;2023-11-18T02:48:21;4.28;;;2.40;;
24163;SDS011;12319;49.204;8.116;2023-11-18T02:50:48;5.70;;;2.45;;
24163;SDS011;12319;49.204;8.116;2023-11-18T02:53:14;4.40;;;2.40;;
24163;SDS011;12319;49.204;8.116;2023-11-18T02:55:40;4.75;;;2.45;;
24163;SDS011;12319;49.204;8.116;2023-11-18T02:58:06;5.03;;;2.60;;
24163;SDS011;12319;49.204;8.116;2023-11-18T03:00:32;4.60;;;2.30;;
24163;SDS011;12319;49.204;8.116;2023-11-18T03:02:58;5.38;;;2.70;;
24163;SDS011;12319;49.204;8.116;2023-11-18T03:05:24;4.90;;;2.50;;
24163;SDS011;12319;49.204;8.116;2023-11-18T03:07:51;5.10;;;2.53;;
24163;SDS011;12319;49.204;8.116;2023-11-18T03:10:18;4.00;;;2.20;;
24163;SDS011;12319;49.204;8.116;2023-11-18T03:12:51;4.82;;;2.58;;
24163;SDS011;12319;49.204;8.116;2023-11-18T03:15:18;4.60;;;2.27;;
24163;SDS011;12319;49.204;8.116;2023-11-18T03:17:45;4.88;;;2.60;;
24163;SDS011;12319;49.204;8.116;2023-11-18T03:20:14;5.03;;;2.80;;
24163;SDS011;12319;49.204;8.116;2023-11-18T03:22:44;4.72;;;2.55;;
24163;SDS011;12319;49.204;8.116;2023-11-18T03:25:13;4.30;;;2.30;;
24163;SDS011;12319;49.204;8.116;2023-11-18T03:27:39;4.40;;;2.50;;
24163;SDS011;12319;49.204;8.116;2023-11-18T03:30:05;4.60;;;2.22;;
24163;SDS011;12319;49.204;8.116;2023-11-18T03:32:33;6.93;;;2.58;;
24163;SDS011;12319;49.204;8.116;2023-11-18T03:35:03;6.27;;;2.37;;
24163;SDS011;12319;49.204;8.116;2023-11-18T03:37:33;4.65;;;2.30;;
24163;SDS011;12319;49.204;8.116;2023-11-18T03:40:09;4.70;;;2.35;;
24163;SDS011;12319;49.204;8.116;2023-11-18T03:42:36;4.25;;;2.30;;
24163;SDS011;12319;49.204;8.116;2023-11-18T03:45:02;4.47;;;2.13;;
24163;SDS011;12319;49.204;8.116;2023-11-18T03:47:28;4.60;;;2.30;;
24163;SDS011;12319;49.204;8.116;2023-11-18T03:49:55;4.75;;;2.50;;
24163;SDS011;12319;49.204;8.116;2023-11-18T03:52:20;4.70;;;2.30;;
24163;SDS011;12319;49.204;8.116;2023-11-18T03:54:46;4.53;;;2.47;;
24163;SDS011;12319;49.204;8.116;2023-11-18T03:57:11;4.20;;;2.20;;
24163;SDS011;12319;49.204;8.116;2023-11-18T03:59:38;5.80;;;2.45;;
24163;SDS011;12319;49.204;8.116;2023-11-18T04:02:05;6.22;;;2.45;;
24163;SDS011;12319;49.204;8.116;2023-11-18T04:04:31;4.70;;;2.28;;
24163;SDS011;12319;49.204;8.116;2023-11-18T04:06:57;4.87;;;2.50;;
24163;SDS011;12319;49.204;8.116;2023-11-18T04:09:24;3.83;;;2.10;;
24163;SDS011;12319;49.204;8.116;2023-11-18T04:11:51;4.70;;;2.50;;
24163;SDS011;12319;49.204;8.116;2023-11-18T04:14:16;4.60;;;2.50;;
24163;SDS011;12319;49.204;8.116;2023-11-18T04:16:44;6.22;;;2.40;;
24163;SDS011;12319;49.204;8.116;2023-11-18T04:19:10;4.00;;;2.20;;
24163;SDS011;12319;49.204;8.116;2023-11-18T04:21:37;4.13;;;2.30;;
24163;SDS011;12319;49.204;8.116;2023-11-18T04:24:03;4.97;;;2.38;;
24163;SDS011;12319;49.204;8.116;2023-11-18T04:26:30;5.30;;;2.60;;
24163;SDS011;12319;49.204;8.116;2023-11-18T04:28:56;4.40;;;2.22;;
24163;SDS011;12319;49.204;8.116;2023-11-18T04:31:22;4.37;;;2.40;;
24163;SDS011;12319;49.204;8.116;2023-11-18T04:33:48;4.68;;;2.58;;
24163;SDS011;12319;49.204;8.116;2023-11-18T04:36:14;3.97;;;2.27;;
24163;SDS011;12319;49.204;8.116;2023-11-18T04:38:41;5.95;;;2.63;;
24163;SDS011;12319;49.204;8.116;2023-11-18T04:41:07;4.30;;;2.20;;
24163;SDS011;12319;49.204;8.116;2023-11-18T04:43:32;4.17;;;2.27;;
24163;SDS011;12319;49.204;8.116;2023-11-18T04:45:58;4.90;;;2.67;;
24163;SDS011;12319;49.204;8.116;2023-11-18T04:48:24;4.10;;;2.20;;
24163;SDS011;12319;49.204;8.116;2023-11-18T04:50:50;4.47;;;2.40;;
24163;SDS011;12319;49.204;8.116;2023-11-18T04:53:15;4.17;;;2.20;;
24163;SDS011;12319;49.204;8.116;2023-11-18T04:55:41;4.70;;;2.20;;
24163;SDS011;12319;49.204;8.116;2023-11-18T04:58:06;4.13;;;2.25;;
24163;SDS011;12319;49.204;8.116;2023-11-18T05:00:34;4.23;;;2.30;;
24163;SDS011;12319;49.204;8.116;2023-11-18T05:03:06;5.60;;;2.40;;
24163;SDS011;12319;49.204;8.116;2023-11-18T05:05:38;4.53;;;2.40;;
24163;SDS011;12319;49.204;8.116;2023-11-18T05:08:05;4.65;;;2.40;;
24163;SDS011;12319;49.204;8.116;2023-11-18T05:10:32;4.13;;;2.20;;
24163;SDS011;12319;49.204;8.116;2023-11-18T05:12:58;4.23;;;2.30;;
24163;SDS011;12319;49.204;8.116;2023-11-18T05:15:24;4.93;;;2.42;;
24163;SDS011;12319;49.204;8.116;2023-11-18T05:17:53;5.03;;;2.57;;
24163;SDS011;12319;49.204;8.116;2023-11-18T05:20:19;4.65;;;2.60;;
24163;SDS011;12319;49.204;8.116;2023-11-18T05:22:48;4.78;;;2.53;;
24163;SDS011;12319;49.204;8.116;2023-11-18T05:25:14;4.37;;;2.40;;
24163;SDS011;12319;49.204;8.116;2023-11-18T05:27:39;4.40;;;2.40;;
24163;SDS011;12319;49.204;8.116;2023-11-18T05:30:08;4.63;;;2.40;;
24163;SDS011;12319;49.204;8.116;2023-11-18T05:32:34;4.13;;;2.28;;
24163;SDS011;12319;49.204;8.116;2023-11-18T05:35:00;4.70;;;2.40;;
24163;SDS011;12319;49.204;8.116;2023-11-18T05:37:26;4.60;;;2.50;;
24163;SDS011;12319;49.204;8.116;2023-11-18T05:39:54;4.40;;;2.40;;
24163;SDS011;12319;49.204;8.116;2023-11-18T05:42:35;5.40;;;2.28;;
24163;SDS011;12319;49.204;8.116;2023-11-18T05:45:02;4.30;;;2.20;;
24163;SDS011;12319;49.204;8.116;2023-11-18T05:47:32;4.50;;;2.40;;
24163;SDS011;12319;49.204;8.116;2023-11-18T05:50:00;3.58;;;2.00;;
24163;SDS011;12319;49.204;8.116;2023-11-18T05:52:25;4.40;;;2.30;;
24163;SDS011;12319;49.204;8.116;2023-11-18T05:54:51;4.03;;;2.13;;
24163;SDS011;12319;49.204;8.116;2023-11-18T05:57:16;3.47;;;2.00;;
24163;SDS011;12319;49.204;8.116;2023-11-18T05:59:43;4.10;;;2.13;;
24163;SDS011;12319;49.204;8.116;2023-11-18T06:02:09;3.80;;;1.90;;
24163;SDS011;12319;49.204;8.116;2023-11-18T06:04:42;4.72;;;2.30;;
24163;SDS011;12319;49.204;8.116;2023-11-18T06:07:08;4.00;;;2.10;;
24163;SDS011;12319;49.204;8.116;2023-11-18T06:09:33;4.00;;;2.30;;
24163;SDS011;12319;49.204;8.116;2023-11-18T06:11:59;4.10;;;2.15;;
24163;SDS011;12319;49.204;8.116;2023-11-18T06:14:25;4.15;;;2.20;;
24163;SDS011;12319;49.204;8.116;2023-11-18T06:16:51;4.40;;;2.20;;
24163;SDS011;12319;49.204;8.116;2023-11-18T06:19:17;3.73;;;2.20;;
24163;SDS011;12319;49.204;8.116;2023-11-18T06:21:43;4.05;;;2.10;;
24163;SDS011;12319;49.204;8.116;2023-11-18T06:24:09;4.13;;;2.20;;
24163;SDS011;12319;49.204;8.116;2023-11-18T06:26:36;4.28;;;2.00;;
24163;SDS011;12319;49.204;8.116;2023-11-18T06:29:02;4.43;;;2.38;;
24163;SDS011;12319;49.204;8.116;2023-11-18T06:31:29;4.40;;;2.25;;
24163;SDS011;12319;49.204;8.116;2023-11-18T06:33:54;4.73;;;2.40;;
24163;SDS011;12319;49.204;8.116;2023-11-18T06:36:20;4.28;;;2.20;;
24163;SDS011;12319;49.204;8.116;2023-11-18T06:38:47;3.80;;;2.07;;
24163;SDS011;12319;49.204;8.116;2023-11-18T06:41:21;4.45;;;2.28;;
24163;SDS011;12319;49.204;8.116;2023-11-18T06:43:51;4.90;;;2.55;;
24163;SDS011;12319;49.204;8.116;2023-11-18T06:46:27;5.50;;;2.28;;
24163;SDS011;12319;49.204;8.116;2023-11-18T06:48:58;4.70;;;2.50;;
24163;SDS011;12319;49.204;8.116;2023-11-18T06:51:28;5.43;;;2.20;;
24163;SDS011;12319;49.204;8.116;2023-11-18T06:53:54;4.45;;;2.30;;
24163;SDS011;12319;49.204;8.116;2023-11-18T06:56:21;4.70;;;2.50;;
24163;SDS011;12319;49.204;8.116;2023-11-18T06:58:47;5.72;;;2.60;;
24163;SDS011;12319;49.204;8.116;2023-11-18T07:01:13;5.53;;;2.80;;
24163;SDS011;12319;49.204;8.116;2023-11-18T07:03:40;6.18;;;3.30;;
24163;SDS011;12319;49.204;8.116;2023-11-18T07:06:09;5.40;;;2.78;;
24163;SDS011;12319;49.204;8.116;2023-11-18T07:08:35;5.07;;;2.73;;
24163;SDS011;12319;49.204;8.116;2023-11-18T07:11:02;6.18;;;3.03;;
24163;SDS011;12319;49.204;8.116;2023-11-18T07:13:28;5.30;;;2.70;;
24163;SDS011;12319;49.204;8.116;2023-11-18T07:15:54;6.15;;;2.75;;
24163;SDS011;12319;49.204;8.116;2023-11-18T07:18:22;6.38;;;3.17;;
24163;SDS011;12319;49.204;8.116;2023-11-18T07:20:50;5.47;;;2.70;;
24163;SDS011;12319;49.204;8.116;2023-11-18T07:23:17;6.30;;;2.83;;
24163;SDS011;12319;49.204;8.116;2023-11-18T07:25:44;6.55;;;3.05;;
24163;SDS011;12319;49.204;8.116;2023-11-18T07:28:10;6.43;;;3.40;;
24163;SDS011;12319;49.204;8.116;2023-11-18T07:30:36;7.30;;;3.38;;
24163;SDS011;12319;49.204;8.116;2023-11-18T07:33:02;6.73;;;3.40;;
24163;SDS011;12319;49.204;8.116;2023-11-18T07:35:28;6.28;;;2.95;;
24163;SDS011;12319;49.204;8.116;2023-11-18T07:37:54;5.88;;;2.78;;
24163;SDS011;12319;49.204;8.116;2023-11-18T07:40:21;6.72;;;3.20;;
24163;SDS011;12319;49.204;8.116;2023-11-18T07:42:53;5.67;;;2.63;;
24163;SDS011;12319;49.204;8.116;2023-11-18T07:45:21;5.97;;;2.78;;
24163;SDS011;12319;49.204;8.116;2023-11-18T07:47:48;8.63;;;3.55;;
24163;SDS011;12319;49.204;8.116;2023-11-18T07:50:20;6.50;;;3.30;;
24163;SDS011;12319;49.204;8.116;2023-11-18T07:52:49;6.18;;;2.83;;
24163;SDS011;12319;49.204;8.116;2023-11-18T07:55:15;6.87;;;2.80;;
24163;SDS011;12319;49.204;8.116;2023-11-18T07:57:41;8.07;;;3.53;;
24163;SDS011;12319;49.204;8.116;2023-11-18T08:00:07;6.93;;;3.10;;
24163;SDS011;12319;49.204;8.116;2023-11-18T08:02:37;7.20;;;3.20;;
24163;SDS011;12319;49.204;8.116;2023-11-18T08:05:04;8.00;;;4.50;;
24163;SDS011;12319;49.204;8.116;2023-11-18T08:07:34;8.00;;;3.90;;
24163;SDS011;12319;49.204;8.116;2023-11-18T08:10:00;6.80;;;3.13;;
24163;SDS011;12319;49.204;8.116;2023-11-18T08:12:29;7.53;;;3.70;;
24163;SDS011;12319;49.204;8.116;2023-11-18T08:14:58;7.35;;;3.80;;
24163;SDS011;12319;49.204;8.116;2023-11-18T08:17:25;6.33;;;3.50;;
24163;SDS011;12319;49.204;8.116;2023-11-18T08:19:51;6.75;;;3.60;;
24163;SDS011;12319;49.204;8.116;2023-11-18T08:22:17;8.13;;;3.67;;
24163;SDS011;12319;49.204;8.116;2023-11-18T08:24:47;6.75;;;3.50;;
24163;SDS011;12319;49.204;8.116;2023-11-18T08:27:13;7.37;;;3.43;;
24163;SDS011;12319;49.204;8.116;2023-11-18T08:29:39;7.43;;;3.38;;
24163;SDS011;12319;49.204;8.116;2023-11-18T08:32:05;6.97;;;3.70;;
24163;SDS011;12319;49.204;8.116;2023-11-18T08:34:34;9.10;;;4.03;;
24163;SDS011;12319;49.204;8.116;2023-11-18T08:37:02;7.07;;;3.90;;
24163;SDS011;12319;49.204;8.116;2023-11-18T08:39:32;6.78;;;3.30;;
24163;SDS011;12319;49.204;8.116;2023-11-18T08:41:58;6.47;;;3.40;;
24163;SDS011;12319;49.204;8.116;2023-11-18T08:44:23;7.57;;;3.93;;
24163;SDS011;12319;49.204;8.116;2023-11-18T08:46:50;6.95;;;3.50;;
24163;SDS011;12319;49.204;8.116;2023-11-18T08:49:17;6.22;;;3.40;;
24163;SDS011;12319;49.204;8.116;2023-11-18T08:51:46;9.80;;;4.05;;
24163;SDS011;12319;49.204;8.116;2023-11-18T08:54:21;7.27;;;3.90;;
24163;SDS011;12319;49.204;8.116;2023-11-18T08:57:02;7.55;;;3.40;;
24163;SDS011;12319;49.204;8.116;2023-11-18T08:59:29;6.22;;;3.42;;
24163;SDS011;12319;49.204;8.116;2023-11-18T09:01:55;8.60;;;4.90;;
24163;SDS011;12319;49.204;8.116;2023-11-18T09:04:24;9.98;;;4.25;;
24163;SDS011;12319;49.204;8.116;2023-11-18T09:06:50;9.57;;;5.03;;
24163;SDS011;12319;49.204;8.116;2023-11-18T09:09:22;9.00;;;4.65;;
24163;SDS011;12319;49.204;8.116;2023-11-18T09:11:57;7.40;;;4.05;;
24163;SDS011;12319;49.204;8.116;2023-11-18T09:14:26;6.53;;;3.70;;
24163;SDS011;12319;49.204;8.116;2023-11-18T09:16:52;6.70;;;3.50;;
24163;SDS011;12319;49.204;8.116;2023-11-18T09:19:21;5.70;;;3.00;;
24163;SDS011;12319;49.204;8.116;2023-11-18T09:21:47;8.75;;;3.28;;
24163;SDS011;12319;49.204;8.116;2023-11-18T09:24:13;6.10;;;3.10;;
24163;SDS011;12319;49.204;8.116;2023-11-18T09:26:43;7.05;;;4.22;;
24163;SDS011;12319;49.204;8.116;2023-11-18T09:29:12;6.23;;;3.13;;
24163;SDS011;12319;49.204;8.116;2023-11-18T09:31:40;6.10;;;3.50;;
24163;SDS011;12319;49.204;8.116;2023-11-18T09:34:07;5.40;;;2.92;;
24163;SDS011;12319;49.204;8.116;2023-11-18T09:36:34;5.82;;;2.92;;
24163;SDS011;12319;49.204;8.116;2023-11-18T09:39:01;5.70;;;3.13;;
24163;SDS011;12319;49.204;8.116;2023-11-18T09:41:28;6.20;;;3.10;;
24163;SDS011;12319;49.204;8.116;2023-11-18T09:43:54;6.18;;;2.90;;
24163;SDS011;12319;49.204;8.116;2023-11-18T09:46:27;6.32;;;3.50;;
24163;SDS011;12319;49.204;8.116;2023-11-18T09:51:39;5.53;;;3.10;;
24163;SDS011;12319;49.204;8.116;2023-11-18T09:57:04;5.57;;;3.00;;
24163;SDS011;12319;49.204;8.116;2023-11-18T09:59:55;4.68;;;2.63;;
24163;SDS011;12319;49.204;8.116;2023-11-18T10:02:36;5.40;;;3.03;;
24163;SDS011;12319;49.204;8.116;2023-11-18T10:05:06;6.83;;;3.77;;
24163;SDS011;12319;49.204;8.116;2023-11-18T10:07:38;7.65;;;3.95;;
24163;SDS011;12319;49.204;8.116;2023-11-18T10:10:06;6.78;;;3.63;;
24163;SDS011;12319;49.204;8.116;2023-11-18T10:12:40;6.05;;;3.15;;
24163;SDS011;12319;49.204;8.116;2023-11-18T10:15:08;7.00;;;2.92;;
24163;SDS011;12319;49.204;8.116;2023-11-18T10:17:37;6.57;;;2.90;;
24163;SDS011;12319;49.204;8.116;2023-11-18T10:20:20;7.20;;;3.20;;
24163;SDS011;12319;49.204;8.116;2023-11-18T10:22:50;6.10;;;3.10;;
24163;SDS011;12319;49.204;8.116;2023-11-18T10:25:31;6.82;;;3.20;;
24163;SDS011;12319;49.204;8.116;2023-11-18T10:27:59;5.90;;;3.28;;
24163;SDS011;12319;49.204;8.116;2023-11-18T10:30:27;6.07;;;3.20;;
24163;SDS011;12319;49.204;8.116;2023-11-18T10:32:59;5.80;;;3.10;;
24163;SDS011;12319;49.204;8.116;2023-11-18T10:35:32;5.10;;;2.85;;
24163;SDS011;12319;49.204;8.116;2023-11-18T10:38:01;7.97;;;3.05;;
24163;SDS011;12319;49.204;8.116;2023-11-18T10:40:31;6.25;;;3.30;;
24163;SDS011;12319;49.204;8.116;2023-11-18T10:43:00;4.87;;;2.63;;
24163;SDS011;12319;49.204;8.116;2023-11-18T10:45:26;5.10;;;3.10;;
24163;SDS011;12319;49.204;8.116;2023-11-18T10:47:52;6.40;;;3.30;;
24163;SDS011;12319;49.204;8.116;2023-11-18T10:50:21;5.40;;;2.70;;
24163;SDS011;12319;49.204;8.116;2023-11-18T10:52:47;5.53;;;3.05;;
24163;SDS011;12319;49.204;8.116;2023-11-18T10:55:13;5.27;;;3.10;;
24163;SDS011;12319;49.204;8.116;2023-11-18T10:57:44;5.80;;;2.70;;
24163;SDS011;12319;49.204;8.116;2023-11-18T11:00:11;5.95;;;2.60;;
24163;SDS011;12319;49.204;8.116;2023-11-18T11:02:43;6.00;;;3.40;;
24163;SDS011;12319;49.204;8.116;2023-11-18T11:05:09;5.40;;;3.03;;
24163;SDS011;12319;49.204;8.116;2023-11-18T11:07:40;7.43;;;4.03;;
24163;SDS011;12319;49.204;8.116;2023-11-18T11:10:07;6.07;;;3.35;;
24163;SDS011;12319;49.204;8.116;2023-11-18T11:12:42;6.05;;;3.00;;
24163;SDS011;12319;49.204;8.116;2023-11-18T11:16:02;5.83;;;3.27;;
24163;SDS011;12319;49.204;8.116;2023-11-18T11:18:11;8.55;;;3.10;;
24163;SDS011;12319;49.204;8.116;2023-11-18T11:20:56;6.30;;;3.45;;
24163;SDS011;12319;49.204;8.116;2023-11-18T11:26:45;5.38;;;3.10;;
24163;SDS011;12319;49.204;8.116;2023-11-18T11:29:18;5.90;;;3.30;;
24163;SDS011;12319;49.204;8.116;2023-11-18T11:35:03;6.78;;;3.47;;
24163;SDS011;12319;49.204;8.116;2023-11-18T11:37:46;7.45;;;3.70;;
24163;SDS011;12319;49.204;8.116;2023-11-18T11:40:13;7.93;;;3.47;;
24163;SDS011;12319;49.204;8.116;2023-11-18T11:42:46;5.67;;;2.87;;
24163;SDS011;12319;49.204;8.116;2023-11-18T11:45:23;5.65;;;2.95;;
24163;SDS011;12319;49.204;8.116;2023-11-18T11:47:53;6.07;;;3.30;;
24163;SDS011;12319;49.204;8.116;2023-11-18T11:50:37;5.70;;;3.25;;
24163;SDS011;12319;49.204;8.116;2023-11-18T11:53:15;5.97;;;3.47;;
24163;SDS011;12319;49.204;8.116;2023-11-18T11:55:46;7.30;;;3.00;;
24163;SDS011;12319;49.204;8.116;2023-11-18T12:01:02;5.68;;;2.90;;
24163;SDS011;12319;49.204;8.116;2023-11-18T12:03:43;8.27;;;3.50;;
24163;SDS011;12319;49.204;8.116;2023-11-18T12:06:12;6.10;;;3.33;;
24163;SDS011;12319;49.204;8.116;2023-11-18T12:08:46;6.47;;;3.33;;
24163;SDS011;12319;49.204;8.116;2023-11-18T12:11:15;7.43;;;3.60;;
24163;SDS011;12319;49.204;8.116;2023-11-18T12:13:59;5.93;;;3.20;;
24163;SDS011;12319;49.204;8.116;2023-11-18T12:19:35;5.68;;;2.85;;
24163;SDS011;12319;49.204;8.116;2023-11-18T12:22:15;5.67;;;2.73;;
24163;SDS011;12319;49.204;8.116;2023-11-18T12:25:28;8.15;;;3.20;;
24163;SDS011;12319;49.204;8.116;2023-11-18T12:35:21;5.97;;;3.28;;
24163;SDS011;12319;49.204;8.116;2023-11-18T12:40:54;6.30;;;3.08;;
24163;SDS011;12319;49.204;8.116;2023-11-18T12:43:48;5.23;;;2.90;;
24163;SDS011;12319;49.204;8.116;2023-11-18T12:49:14;5.95;;;3.60;;
24163;SDS011;12319;49.204;8.116;2023-11-18T12:51:44;5.60;;;3.00;;
24163;SDS011;12319;49.204;8.116;2023-11-18T12:54:10;7.57;;;3.78;;
24163;SDS011;12319;49.204;8.116;2023-11-18T12:56:37;5.77;;;3.03;;
24163;SDS011;12319;49.204;8.116;2023-11-18T12:59:09;7.05;;;3.17;;
24163;SDS011;12319;49.204;8.116;2023-11-18T13:01:37;6.03;;;3.30;;
24163;SDS011;12319;49.204;8.116;2023-11-18T13:04:04;5.88;;;3.17;;
24163;SDS011;12319;49.204;8.116;2023-11-18T13:06:30;6.63;;;3.70;;
24163;SDS011;12319;49.204;8.116;2023-11-18T13:08:56;6.65;;;3.50;;
24163;SDS011;12319;49.204;8.116;2023-11-18T13:11:23;8.23;;;4.23;;
24163;SDS011;12319;49.204;8.116;2023-11-18T13:13:49;6.97;;;3.25;;
24163;SDS011;12319;49.204;8.116;2023-11-18T13:16:16;7.93;;;3.70;;
24163;SDS011;12319;49.204;8.116;2023-11-18T13:18:46;6.65;;;3.60;;
24163;SDS011;12319;49.204;8.116;2023-11-18T13:21:15;10.37;;;4.37;;
24163;SDS011;12319;49.204;8.116;2023-11-18T13:23:44;6.07;;;3.38;;
24163;SDS011;12319;49.204;8.116;2023-11-18T13:26:12;7.38;;;3.92;;
24163;SDS011;12319;49.204;8.116;2023-11-18T13:28:38;7.43;;;3.50;;
24163;SDS011;12319;49.204;8.116;2023-11-18T13:31:08;7.80;;;3.97;;
24163;SDS011;12319;49.204;8.116;2023-11-18T13:33:40;7.60;;;4.35;;
24163;SDS011;12319;49.204;8.116;2023-11-18T13:36:07;6.38;;;3.20;;
24163;SDS011;12319;49.204;8.116;2023-11-18T13:38:35;5.32;;;3.13;;
24163;SDS011;12319;49.204;8.116;2023-11-18T13:41:04;8.48;;;4.25;;
24163;SDS011;12319;49.204;8.116;2023-11-18T13:46:10;7.10;;;3.85;;
24163;SDS011;12319;49.204;8.116;2023-11-18T13:48:39;5.80;;;3.60;;
24163;SDS011;12319;49.204;8.116;2023-11-18T13:51:11;5.75;;;3.25;;
24163;SDS011;12319;49.204;8.116;2023-11-18T13:53:38;6.25;;;3.03;;
24163;SDS011;12319;49.204;8.116;2023-11-18T13:56:06;6.27;;;3.50;;
24163;SDS011;12319;49.204;8.116;2023-11-18T13:58:35;6.00;;;2.80;;
24163;SDS011;12319;49.204;8.116;2023-11-18T14:01:04;6.78;;;3.20;;
24163;SDS011;12319;49.204;8.116;2023-11-18T14:03:37;6.32;;;3.63;;
24163;SDS011;12319;49.204;8.116;2023-11-18T14:06:05;5.57;;;3.13;;
24163;SDS011;12319;49.204;8.116;2023-11-18T14:08:31;8.27;;;3.20;;
24163;SDS011;12319;49.204;8.116;2023-11-18T14:10:59;5.55;;;2.65;;
24163;SDS011;12319;49.204;8.116;2023-11-18T14:13:25;6.80;;;3.70;;
24163;SDS011;12319;49.204;8.116;2023-11-18T14:15:55;6.78;;;3.35;;
24163;SDS011;12319;49.204;8.116;2023-11-18T14:18:22;6.07;;;2.40;;
24163;SDS011;12319;49.204;8.116;2023-11-18T14:20:48;5.00;;;2.60;;
24163;SDS011;12319;49.204;8.116;2023-11-18T14:23:15;5.40;;;2.67;;
24163;SDS011;12319;49.204;8.116;2023-11-18T14:25:41;5.57;;;2.70;;
24163;SDS011;12319;49.204;8.116;2023-11-18T14:28:07;5.57;;;2.88;;
24163;SDS011;12319;49.204;8.116;2023-11-18T14:30:35;6.13;;;2.95;;
24163;SDS011;12319;49.204;8.116;2023-11-18T14:33:00;5.40;;;3.03;;
24163;SDS011;12319;49.204;8.116;2023-11-18T14:35:26;6.10;;;3.03;;
24163;SDS011;12319;49.204;8.116;2023-11-18T14:37:52;5.18;;;2.70;;
24163;SDS011;12319;49.204;8.116;2023-11-18T14:40:17;5.60;;;2.80;;
24163;SDS011;12319;49.204;8.116;2023-11-18T14:42:44;5.13;;;3.00;;
24163;SDS011;12319;49.204;8.116;2023-11-18T14:45:12;6.00;;;3.08;;
24163;SDS011;12319;49.204;8.116;2023-11-18T14:47:39;5.70;;;2.75;;
24163;SDS011;12319;49.204;8.116;2023-11-18T14:50:05;6.22;;;3.42;;
24163;SDS011;12319;49.204;8.116;2023-11-18T14:52:40;5.55;;;3.17;;
24163;SDS011;12319;49.204;8.116;2023-11-18T14:55:06;5.60;;;3.00;;
24163;SDS011;12319;49.204;8.116;2023-11-18T14:57:37;5.18;;;2.60;;
24163;SDS011;12319;49.204;8.116;2023-11-18T15:00:04;5.30;;;2.50;;
24163;SDS011;12319;49.204;8.116;2023-11-18T15:02:44;5.07;;;2.65;;
24163;SDS011;12319;49.204;8.116;2023-11-18T15:05:11;5.03;;;2.47;;
24163;SDS011;12319;49.204;8.116;2023-11-18T15:07:36;5.57;;;2.60;;
24163;SDS011;12319;49.204;8.116;2023-11-18T15:10:03;6.45;;;3.00;;
24163;SDS011;12319;49.204;8.116;2023-11-18T15:12:29;5.35;;;2.72;;
24163;SDS011;12319;49.204;8.116;2023-11-18T15:14:55;5.93;;;2.43;;
24163;SDS011;12319;49.204;8.116;2023-11-18T15:17:24;6.93;;;3.20;;
24163;SDS011;12319;49.204;8.116;2023-11-18T15:19:50;5.57;;;3.00;;
24163;SDS011;12319;49.204;8.116;2023-11-18T15:22:16;6.63;;;2.50;;
24163;SDS011;12319;49.204;8.116;2023-11-18T15:24:41;5.85;;;2.60;;
24163;SDS011;12319;49.204;8.116;2023-11-18T15:27:07;5.43;;;2.60;;
24163;SDS011;12319;49.204;8.116;2023-11-18T15:29:33;5.10;;;2.60;;
24163;SDS011;12319;49.204;8.116;2023-11-18T15:32:04;8.05;;;2.78;;
24163;SDS011;12319;49.204;8.116;2023-11-18T15:34:30;6.45;;;2.97;;